sensor_id;sensor_type;location;lat;lon;timestamp;P1;P2;P0
80289;PMS7003;69592;44.804;-0.550;2023-12-04T00:01:20;4.00;2.50;2.25
80289;PMS7003;69592;44.804;-0.550;2023-12-04T00:03:46;4.25;4.25;2.25
80289;PMS7003;69592;44.804;-0.550;2023-12-04T00:06:12;3.00;3.00;3.00
80289;PMS7003;69592;44.804;-0.550;2023-12-04T00:08:38;3.50;3.50;2.25
80289;PMS7003;69592;44.804;-0.550;2023-12-04T00:11:04;3.00;2.25;2.25
80289;PMS7003;69592;44.804;-0.550;2023-12-04T00:13:30;4.75;4.75;4.00
80289;PMS7003;69592;44.804;-0.550;2023-12-04T00:15:56;4.00;4.00;4.00
80289;PMS7003;69592;44.804;-0.550;2023-12-04T00:18:21;1.00;1.00;1.00
80289;PMS7003;69592;44.804;-0.550;2023-12-04T00:20:46;5.00;5.00;4.00
80289;PMS7003;69592;44.804;-0.550;2023-12-04T00:23:12;4.75;4.75;2.25
80289;PMS7003;69592;44.804;-0.550;2023-12-04T00:25:37;3.50;3.25;3.00
80289;PMS7003;69592;44.804;-0.550;2023-12-04T00:28:03;4.00;3.75;1.75
80289;PMS7003;69592;44.804;-0.550;2023-12-04T00:30:28;8.25;4.00;3.50
80289;PMS7003;69592;44.804;-0.550;2023-12-04T00:32:54;6.50;4.00;3.00
80289;PMS7003;69592;44.804;-0.550;2023-12-04T00:35:19;4.75;4.00;3.00
80289;PMS7003;69592;44.804;-0.550;2023-12-04T00:37:44;6.50;4.00;2.00
80289;PMS7003;69592;44.804;-0.550;2023-12-04T00:40:10;5.25;3.50;3.00
80289;PMS7003;69592;44.804;-0.550;2023-12-04T00:42:35;4.75;4.75;3.25
80289;PMS7003;69592;44.804;-0.550;2023-12-04T00:45:01;7.00;4.25;3.50
80289;PMS7003;69592;44.804;-0.550;2023-12-04T00:47:27;4.00;3.75;3.25
80289;PMS7003;69592;44.804;-0.550;2023-12-04T00:49:53;8.50;6.00;3.50
80289;PMS7003;69592;44.804;-0.550;2023-12-04T00:52:18;1.75;1.00;0.00
80289;PMS7003;69592;44.804;-0.550;2023-12-04T00:54:44;6.75;6.75;4.50
80289;PMS7003;69592;44.804;-0.550;2023-12-04T00:57:09;4.75;4.75;3.50
80289;PMS7003;69592;44.804;-0.550;2023-12-04T00:59:35;8.75;5.25;3.25
80289;PMS7003;69592;44.804;-0.550;2023-12-04T01:02:00;1.00;1.00;1.00
80289;PMS7003;69592;44.804;-0.550;2023-12-04T01:04:25;1.00;1.00;1.00
80289;PMS7003;69592;44.804;-0.550;2023-12-04T01:06:51;3.25;3.25;3.00
80289;PMS7003;69592;44.804;-0.550;2023-12-04T01:09:18;6.00;6.00;4.75
80289;PMS7003;69592;44.804;-0.550;2023-12-04T01:11:43;7.00;3.75;3.00
80289;PMS7003;69592;44.804;-0.550;2023-12-04T01:14:08;1.00;1.00;0.00
80289;PMS7003;69592;44.804;-0.550;2023-12-04T01:16:34;3.75;1.75;1.00
80289;PMS7003;69592;44.804;-0.550;2023-12-04T01:18:59;4.00;2.25;2.25
80289;PMS7003;69592;44.804;-0.550;2023-12-04T01:21:24;5.50;4.25;3.75
80289;PMS7003;69592;44.804;-0.550;2023-12-04T01:23:50;6.00;6.00;4.00
80289;PMS7003;69592;44.804;-0.550;2023-12-04T01:26:15;6.50;4.50;4.00
80289;PMS7003;69592;44.804;-0.550;2023-12-04T01:28:41;4.50;4.00;3.50
80289;PMS7003;69592;44.804;-0.550;2023-12-04T01:31:06;2.00;2.00;1.00
80289;PMS7003;69592;44.804;-0.550;2023-12-04T01:33:32;6.75;5.25;3.50
80289;PMS7003;69592;44.804;-0.550;2023-12-04T01:35:57;1.75;1.75;1.25
80289;PMS7003;69592;44.804;-0.550;2023-12-04T01:38:22;3.50;3.50;3.00
80289;PMS7003;69592;44.804;-0.550;2023-12-04T01:40:48;7.75;3.00;1.00
80289;PMS7003;69592;44.804;-0.550;2023-12-04T01:43:13;3.75;3.75;3.25
80289;PMS7003;69592;44.804;-0.550;2023-12-04T01:45:39;3.00;3.00;2.25
80289;PMS7003;69592;44.804;-0.550;2023-12-04T01:48:05;3.00;3.00;1.00
80289;PMS7003;69592;44.804;-0.550;2023-12-04T01:50:32;0.25;0.25;0.25
80289;PMS7003;69592;44.804;-0.550;2023-12-04T01:52:59;6.00;4.00;3.00
80289;PMS7003;69592;44.804;-0.550;2023-12-04T01:55:25;7.00;4.00;3.00
80289;PMS7003;69592;44.804;-0.550;2023-12-04T01:57:50;2.75;2.75;1.25
80289;PMS7003;69592;44.804;-0.550;2023-12-04T02:00:18;4.75;3.50;1.25
80289;PMS7003;69592;44.804;-0.550;2023-12-04T02:02:46;4.00;2.25;1.25
80289;PMS7003;69592;44.804;-0.550;2023-12-04T02:05:11;2.75;1.00;1.00
80289;PMS7003;69592;44.804;-0.550;2023-12-04T02:07:40;1.25;1.25;1.00
80289;PMS7003;69592;44.804;-0.550;2023-12-04T02:10:06;3.25;3.25;2.25
80289;PMS7003;69592;44.804;-0.550;2023-12-04T02:12:31;4.50;2.50;2.00
80289;PMS7003;69592;44.804;-0.550;2023-12-04T02:14:57;1.00;1.00;1.00
80289;PMS7003;69592;44.804;-0.550;2023-12-04T02:17:23;3.00;1.00;1.00
80289;PMS7003;69592;44.804;-0.550;2023-12-04T02:19:50;1.00;1.00;0.50
80289;PMS7003;69592;44.804;-0.550;2023-12-04T02:22:16;1.25;1.25;1.25
80289;PMS7003;69592;44.804;-0.550;2023-12-04T02:24:43;3.00;3.00;3.00
80289;PMS7003;69592;44.804;-0.550;2023-12-04T02:27:22;3.00;1.00;0.75
80289;PMS7003;69592;44.804;-0.550;2023-12-04T02:29:53;3.00;2.50;1.75
80289;PMS7003;69592;44.804;-0.550;2023-12-04T02:32:22;4.00;3.00;3.00
80289;PMS7003;69592;44.804;-0.550;2023-12-04T02:34:49;1.00;1.00;1.00
80289;PMS7003;69592;44.804;-0.550;2023-12-04T02:37:18;3.00;3.00;3.00
80289;PMS7003;69592;44.804;-0.550;2023-12-04T02:39:46;2.75;2.75;2.25
80289;PMS7003;69592;44.804;-0.550;2023-12-04T02:42:13;2.00;2.00;1.00
80289;PMS7003;69592;44.804;-0.550;2023-12-04T02:44:39;4.00;1.75;1.00
80289;PMS7003;69592;44.804;-0.550;2023-12-04T02:47:05;1.00;1.00;1.00
80289;PMS7003;69592;44.804;-0.550;2023-12-04T02:49:30;1.50;1.50;1.00
80289;PMS7003;69592;44.804;-0.550;2023-12-04T02:51:56;2.25;2.25;1.00
80289;PMS7003;69592;44.804;-0.550;2023-12-04T02:54:22;1.00;1.00;0.75
80289;PMS7003;69592;44.804;-0.550;2023-12-04T02:56:48;3.75;2.25;1.75
80289;PMS7003;69592;44.804;-0.550;2023-12-04T02:59:13;0.75;0.75;0.50
80289;PMS7003;69592;44.804;-0.550;2023-12-04T03:01:39;3.25;1.00;1.00
80289;PMS7003;69592;44.804;-0.550;2023-12-04T03:04:04;3.25;3.00;1.75
80289;PMS7003;69592;44.804;-0.550;2023-12-04T03:06:30;1.00;1.00;1.00
80289;PMS7003;69592;44.804;-0.550;2023-12-04T03:08:55;1.00;1.00;1.00
80289;PMS7003;69592;44.804;-0.550;2023-12-04T03:11:21;1.75;1.75;1.00
80289;PMS7003;69592;44.804;-0.550;2023-12-04T03:13:46;2.00;2.00;2.00
80289;PMS7003;69592;44.804;-0.550;2023-12-04T03:16:15;2.25;1.00;1.00
80289;PMS7003;69592;44.804;-0.550;2023-12-04T03:18:43;4.00;4.00;2.25
80289;PMS7003;69592;44.804;-0.550;2023-12-04T03:21:09;2.25;2.25;1.75
80289;PMS7003;69592;44.804;-0.550;2023-12-04T03:23:35;2.75;1.00;1.00
80289;PMS7003;69592;44.804;-0.550;2023-12-04T03:26:00;4.25;2.25;2.25
80289;PMS7003;69592;44.804;-0.550;2023-12-04T03:28:25;1.75;1.00;1.00
80289;PMS7003;69592;44.804;-0.550;2023-12-04T03:30:51;3.00;1.00;1.00
80289;PMS7003;69592;44.804;-0.550;2023-12-04T03:33:16;1.75;1.75;1.00
80289;PMS7003;69592;44.804;-0.550;2023-12-04T03:35:41;2.00;2.00;1.00
80289;PMS7003;69592;44.804;-0.550;2023-12-04T03:38:07;2.25;2.25;1.00
80289;PMS7003;69592;44.804;-0.550;2023-12-04T03:40:32;2.00;2.00;2.00
80289;PMS7003;69592;44.804;-0.550;2023-12-04T03:42:57;1.00;1.00;1.00
80289;PMS7003;69592;44.804;-0.550;2023-12-04T03:45:23;1.00;1.00;1.00
80289;PMS7003;69592;44.804;-0.550;2023-12-04T03:47:48;1.50;1.50;1.00
80289;PMS7003;69592;44.804;-0.550;2023-12-04T03:50:13;4.00;4.00;1.75
80289;PMS7003;69592;44.804;-0.550;2023-12-04T03:52:40;0.00;0.00;0.00
80289;PMS7003;69592;44.804;-0.550;2023-12-04T03:55:06;1.00;1.00;1.00
80289;PMS7003;69592;44.804;-0.550;2023-12-04T03:57:33;3.50;1.25;1.00
80289;PMS7003;69592;44.804;-0.550;2023-12-04T03:59:58;1.75;1.75;1.00
80289;PMS7003;69592;44.804;-0.550;2023-12-04T04:02:23;1.00;1.00;0.75
80289;PMS7003;69592;44.804;-0.550;2023-12-04T04:04:49;1.00;1.00;1.00
80289;PMS7003;69592;44.804;-0.550;2023-12-04T04:07:15;0.50;0.50;0.25
80289;PMS7003;69592;44.804;-0.550;2023-12-04T04:09:41;3.75;1.00;1.00
80289;PMS7003;69592;44.804;-0.550;2023-12-04T04:12:06;2.25;2.25;1.00
80289;PMS7003;69592;44.804;-0.550;2023-12-04T04:14:31;1.00;1.00;1.00
80289;PMS7003;69592;44.804;-0.550;2023-12-04T04:16:57;1.00;1.00;1.00
80289;PMS7003;69592;44.804;-0.550;2023-12-04T04:19:22;3.50;1.00;1.00
80289;PMS7003;69592;44.804;-0.550;2023-12-04T04:21:48;3.00;1.00;1.00
80289;PMS7003;69592;44.804;-0.550;2023-12-04T04:24:13;4.00;1.00;1.00
80289;PMS7003;69592;44.804;-0.550;2023-12-04T04:26:38;1.75;1.75;1.00
80289;PMS7003;69592;44.804;-0.550;2023-12-04T04:29:04;1.25;1.25;1.00
80289;PMS7003;69592;44.804;-0.550;2023-12-04T04:31:30;0.00;0.00;0.00
80289;PMS7003;69592;44.804;-0.550;2023-12-04T04:33:55;1.00;1.00;1.00
80289;PMS7003;69592;44.804;-0.550;2023-12-04T04:36:20;1.00;1.00;1.00
80289;PMS7003;69592;44.804;-0.550;2023-12-04T04:38:46;3.00;3.00;1.00
80289;PMS7003;69592;44.804;-0.550;2023-12-04T04:41:14;0.25;0.00;0.00
80289;PMS7003;69592;44.804;-0.550;2023-12-04T04:43:42;1.00;1.00;1.00
80289;PMS7003;69592;44.804;-0.550;2023-12-04T04:46:07;1.00;1.00;1.00
80289;PMS7003;69592;44.804;-0.550;2023-12-04T04:48:33;1.25;1.25;1.00
80289;PMS7003;69592;44.804;-0.550;2023-12-04T04:50:58;3.00;3.00;1.00
80289;PMS7003;69592;44.804;-0.550;2023-12-04T04:53:24;1.25;1.25;1.00
80289;PMS7003;69592;44.804;-0.550;2023-12-04T04:55:49;1.00;1.00;1.00
80289;PMS7003;69592;44.804;-0.550;2023-12-04T04:58:15;1.00;1.00;1.00
80289;PMS7003;69592;44.804;-0.550;2023-12-04T05:00:41;1.00;1.00;0.50
80289;PMS7003;69592;44.804;-0.550;2023-12-04T05:03:07;1.50;0.00;0.00
80289;PMS7003;69592;44.804;-0.550;2023-12-04T05:05:32;1.00;1.00;1.00
80289;PMS7003;69592;44.804;-0.550;2023-12-04T05:07:57;2.00;2.00;1.00
80289;PMS7003;69592;44.804;-0.550;2023-12-04T05:10:23;1.00;1.00;1.00
80289;PMS7003;69592;44.804;-0.550;2023-12-04T05:12:48;0.25;0.25;0.00
80289;PMS7003;69592;44.804;-0.550;2023-12-04T05:15:13;3.00;1.00;0.75
80289;PMS7003;69592;44.804;-0.550;2023-12-04T05:17:39;0.00;0.00;0.00
80289;PMS7003;69592;44.804;-0.550;2023-12-04T05:20:05;3.00;0.75;0.00
80289;PMS7003;69592;44.804;-0.550;2023-12-04T05:22:32;0.50;0.00;0.00
80289;PMS7003;69592;44.804;-0.550;2023-12-04T05:24:59;0.25;0.25;0.00
80289;PMS7003;69592;44.804;-0.550;2023-12-04T05:27:24;0.00;0.00;0.00
80289;PMS7003;69592;44.804;-0.550;2023-12-04T05:29:49;0.00;0.00;0.00
80289;PMS7003;69592;44.804;-0.550;2023-12-04T05:32:15;1.00;1.00;1.00
80289;PMS7003;69592;44.804;-0.550;2023-12-04T05:34:40;0.75;0.75;0.00
80289;PMS7003;69592;44.804;-0.550;2023-12-04T05:37:05;1.75;1.00;1.00
80289;PMS7003;69592;44.804;-0.550;2023-12-04T05:39:31;0.75;0.75;0.00
80289;PMS7003;69592;44.804;-0.550;2023-12-04T05:41:56;1.00;1.00;1.00
80289;PMS7003;69592;44.804;-0.550;2023-12-04T05:44:22;0.50;0.50;0.00
80289;PMS7003;69592;44.804;-0.550;2023-12-04T05:46:47;1.00;1.00;1.00
80289;PMS7003;69592;44.804;-0.550;2023-12-04T05:49:13;1.00;1.00;0.75
80289;PMS7003;69592;44.804;-0.550;2023-12-04T05:51:38;0.00;0.00;0.00
80289;PMS7003;69592;44.804;-0.550;2023-12-04T05:54:03;3.00;1.00;1.00
80289;PMS7003;69592;44.804;-0.550;2023-12-04T05:56:29;2.75;1.00;1.00
80289;PMS7003;69592;44.804;-0.550;2023-12-04T05:58:54;1.00;1.00;1.00
80289;PMS7003;69592;44.804;-0.550;2023-12-04T06:01:20;1.00;1.00;1.00
80289;PMS7003;69592;44.804;-0.550;2023-12-04T06:03:46;1.25;0.00;0.00
80289;PMS7003;69592;44.804;-0.550;2023-12-04T06:06:11;1.00;1.00;1.00
80289;PMS7003;69592;44.804;-0.550;2023-12-04T06:08:37;0.25;0.25;0.00
80289;PMS7003;69592;44.804;-0.550;2023-12-04T06:11:02;3.00;1.00;1.00
80289;PMS7003;69592;44.804;-0.550;2023-12-04T06:13:27;3.00;1.00;0.00
80289;PMS7003;69592;44.804;-0.550;2023-12-04T06:15:53;3.50;0.75;0.50
80289;PMS7003;69592;44.804;-0.550;2023-12-04T06:18:18;3.25;1.50;1.00
80289;PMS7003;69592;44.804;-0.550;2023-12-04T06:20:45;0.00;0.00;0.00
80289;PMS7003;69592;44.804;-0.550;2023-12-04T06:23:11;1.50;1.50;1.00
80289;PMS7003;69592;44.804;-0.550;2023-12-04T06:25:37;1.00;1.00;1.00
80289;PMS7003;69592;44.804;-0.550;2023-12-04T06:28:04;0.75;0.75;0.75
80289;PMS7003;69592;44.804;-0.550;2023-12-04T06:30:30;1.00;1.00;1.00
80289;PMS7003;69592;44.804;-0.550;2023-12-04T06:32:55;0.75;0.75;0.75
80289;PMS7003;69592;44.804;-0.550;2023-12-04T06:35:21;1.00;1.00;0.00
80289;PMS7003;69592;44.804;-0.550;2023-12-04T06:37:48;1.00;1.00;1.00
80289;PMS7003;69592;44.804;-0.550;2023-12-04T06:40:14;0.50;0.00;0.00
80289;PMS7003;69592;44.804;-0.550;2023-12-04T06:42:40;1.00;1.00;1.00
80289;PMS7003;69592;44.804;-0.550;2023-12-04T06:45:06;0.50;0.50;0.00
80289;PMS7003;69592;44.804;-0.550;2023-12-04T06:47:32;1.00;1.00;0.00
80289;PMS7003;69592;44.804;-0.550;2023-12-04T06:49:59;1.00;1.00;1.00
80289;PMS7003;69592;44.804;-0.550;2023-12-04T06:52:24;4.00;1.00;1.00
80289;PMS7003;69592;44.804;-0.550;2023-12-04T06:54:50;0.75;0.75;0.25
80289;PMS7003;69592;44.804;-0.550;2023-12-04T06:57:15;0.00;0.00;0.00
80289;PMS7003;69592;44.804;-0.550;2023-12-04T06:59:41;3.00;3.00;1.00
80289;PMS7003;69592;44.804;-0.550;2023-12-04T07:02:07;3.00;1.00;0.75
80289;PMS7003;69592;44.804;-0.550;2023-12-04T07:04:32;1.00;1.00;1.00
80289;PMS7003;69592;44.804;-0.550;2023-12-04T07:06:59;3.25;1.00;1.00
80289;PMS7003;69592;44.804;-0.550;2023-12-04T07:09:29;2.00;2.00;1.00
80289;PMS7003;69592;44.804;-0.550;2023-12-04T07:11:58;4.00;2.75;1.00
80289;PMS7003;69592;44.804;-0.550;2023-12-04T07:14:23;5.00;4.00;4.00
80289;PMS7003;69592;44.804;-0.550;2023-12-04T07:16:48;1.00;1.00;1.00
80289;PMS7003;69592;44.804;-0.550;2023-12-04T07:19:14;3.50;2.75;2.75
80289;PMS7003;69592;44.804;-0.550;2023-12-04T07:21:41;1.00;1.00;0.25
80289;PMS7003;69592;44.804;-0.550;2023-12-04T07:24:06;2.25;1.00;0.00
80289;PMS7003;69592;44.804;-0.550;2023-12-04T07:26:33;1.75;1.75;1.25
80289;PMS7003;69592;44.804;-0.550;2023-12-04T07:29:00;1.00;1.00;1.00
80289;PMS7003;69592;44.804;-0.550;2023-12-04T07:31:26;0.50;0.50;0.50
80289;PMS7003;69592;44.804;-0.550;2023-12-04T07:33:53;1.00;1.00;1.00
80289;PMS7003;69592;44.804;-0.550;2023-12-04T07:36:19;0.75;0.75;0.50
80289;PMS7003;69592;44.804;-0.550;2023-12-04T07:38:44;3.25;3.25;1.25
80289;PMS7003;69592;44.804;-0.550;2023-12-04T07:41:10;1.75;1.75;1.00
80289;PMS7003;69592;44.804;-0.550;2023-12-04T07:43:35;1.00;1.00;1.00
80289;PMS7003;69592;44.804;-0.550;2023-12-04T07:46:01;1.00;1.00;1.00
80289;PMS7003;69592;44.804;-0.550;2023-12-04T07:48:26;3.00;2.75;2.25
80289;PMS7003;69592;44.804;-0.550;2023-12-04T07:50:51;2.50;2.00;1.50
80289;PMS7003;69592;44.804;-0.550;2023-12-04T07:53:17;1.50;1.50;1.00
80289;PMS7003;69592;44.804;-0.550;2023-12-04T07:55:42;1.00;1.00;1.00
80289;PMS7003;69592;44.804;-0.550;2023-12-04T07:58:09;2.25;2.25;1.75
80289;PMS7003;69592;44.804;-0.550;2023-12-04T08:00:34;2.25;1.00;1.00
80289;PMS7003;69592;44.804;-0.550;2023-12-04T08:02:59;0.75;0.00;0.00
80289;PMS7003;69592;44.804;-0.550;2023-12-04T08:05:25;1.25;1.25;1.00
80289;PMS7003;69592;44.804;-0.550;2023-12-04T08:07:52;2.25;2.25;2.25
80289;PMS7003;69592;44.804;-0.550;2023-12-04T08:10:17;1.00;1.00;1.00
80289;PMS7003;69592;44.804;-0.550;2023-12-04T08:12:44;2.25;2.25;1.50
80289;PMS7003;69592;44.804;-0.550;2023-12-04T08:15:11;4.00;4.00;3.50
80289;PMS7003;69592;44.804;-0.550;2023-12-04T08:17:36;2.00;2.00;1.75
80289;PMS7003;69592;44.804;-0.550;2023-12-04T08:20:01;4.00;2.00;1.50
80289;PMS7003;69592;44.804;-0.550;2023-12-04T08:22:29;2.00;2.00;1.00
80289;PMS7003;69592;44.804;-0.550;2023-12-04T08:24:54;5.00;2.00;1.50
80289;PMS7003;69592;44.804;-0.550;2023-12-04T08:27:20;2.00;2.00;1.00
80289;PMS7003;69592;44.804;-0.550;2023-12-04T08:29:45;3.00;3.00;2.00
80289;PMS7003;69592;44.804;-0.550;2023-12-04T08:32:11;2.00;2.00;2.00
80289;PMS7003;69592;44.804;-0.550;2023-12-04T08:34:36;3.50;3.00;1.00
80289;PMS7003;69592;44.804;-0.550;2023-12-04T08:37:01;4.00;3.00;2.00
80289;PMS7003;69592;44.804;-0.550;2023-12-04T08:39:27;1.00;1.00;1.00
80289;PMS7003;69592;44.804;-0.550;2023-12-04T08:41:52;4.75;4.75;2.00
80289;PMS7003;69592;44.804;-0.550;2023-12-04T08:44:18;2.75;2.00;2.00
80289;PMS7003;69592;44.804;-0.550;2023-12-04T08:46:46;1.00;1.00;1.00
80289;PMS7003;69592;44.804;-0.550;2023-12-04T08:49:11;1.00;1.00;1.00
80289;PMS7003;69592;44.804;-0.550;2023-12-04T08:51:37;1.50;0.25;0.00
80289;PMS7003;69592;44.804;-0.550;2023-12-04T08:54:02;1.00;1.00;1.00
80289;PMS7003;69592;44.804;-0.550;2023-12-04T08:56:28;3.00;1.00;1.00
80289;PMS7003;69592;44.804;-0.550;2023-12-04T08:58:54;1.00;1.00;1.00
80289;PMS7003;69592;44.804;-0.550;2023-12-04T09:01:19;2.00;1.00;1.00
80289;PMS7003;69592;44.804;-0.550;2023-12-04T09:03:45;2.50;1.00;1.00
80289;PMS7003;69592;44.804;-0.550;2023-12-04T09:06:10;1.00;1.00;1.00
80289;PMS7003;69592;44.804;-0.550;2023-12-04T09:08:36;3.00;3.00;2.00
80289;PMS7003;69592;44.804;-0.550;2023-12-04T09:11:01;2.50;2.00;1.50
80289;PMS7003;69592;44.804;-0.550;2023-12-04T09:13:28;1.00;1.00;1.00
80289;PMS7003;69592;44.804;-0.550;2023-12-04T09:15:55;1.75;1.75;1.00
80289;PMS7003;69592;44.804;-0.550;2023-12-04T09:18:20;2.00;2.00;2.00
80289;PMS7003;69592;44.804;-0.550;2023-12-04T09:20:45;1.00;1.00;1.00
80289;PMS7003;69592;44.804;-0.550;2023-12-04T09:23:11;1.50;1.50;1.00
80289;PMS7003;69592;44.804;-0.550;2023-12-04T09:25:37;2.50;2.50;2.00
80289;PMS7003;69592;44.804;-0.550;2023-12-04T09:28:02;1.50;1.50;1.00
80289;PMS7003;69592;44.804;-0.550;2023-12-04T09:30:28;2.50;2.00;1.00
80289;PMS7003;69592;44.804;-0.550;2023-12-04T09:32:53;1.50;1.25;1.00
80289;PMS7003;69592;44.804;-0.550;2023-12-04T09:35:19;4.00;4.00;2.00
80289;PMS7003;69592;44.804;-0.550;2023-12-04T09:37:44;2.25;1.75;1.00
80289;PMS7003;69592;44.804;-0.550;2023-12-04T09:40:11;1.00;1.00;1.00
80289;PMS7003;69592;44.804;-0.550;2023-12-04T09:42:36;2.00;1.00;1.00
80289;PMS7003;69592;44.804;-0.550;2023-12-04T09:45:04;4.00;1.00;1.00
80289;PMS7003;69592;44.804;-0.550;2023-12-04T09:47:30;1.25;1.00;0.00
80289;PMS7003;69592;44.804;-0.550;2023-12-04T09:49:59;1.00;1.00;0.75
80289;PMS7003;69592;44.804;-0.550;2023-12-04T09:52:33;1.00;1.00;1.00
80289;PMS7003;69592;44.804;-0.550;2023-12-04T09:55:00;1.00;1.00;1.00
80289;PMS7003;69592;44.804;-0.550;2023-12-04T09:57:26;1.50;1.00;1.00
80289;PMS7003;69592;44.804;-0.550;2023-12-04T09:59:52;1.00;1.00;1.00
80289;PMS7003;69592;44.804;-0.550;2023-12-04T10:02:18;1.00;1.00;1.00
80289;PMS7003;69592;44.804;-0.550;2023-12-04T10:04:44;1.00;1.00;1.00
80289;PMS7003;69592;44.804;-0.550;2023-12-04T10:07:10;1.50;1.50;1.00
80289;PMS7003;69592;44.804;-0.550;2023-12-04T10:09:36;2.00;1.25;1.00
80289;PMS7003;69592;44.804;-0.550;2023-12-04T10:12:01;3.00;1.25;1.00
80289;PMS7003;69592;44.804;-0.550;2023-12-04T10:14:27;4.00;1.00;0.00
80289;PMS7003;69592;44.804;-0.550;2023-12-04T10:16:52;1.00;1.00;0.75
80289;PMS7003;69592;44.804;-0.550;2023-12-04T10:21:56;4.00;0.50;0.50
80289;PMS7003;69592;44.804;-0.550;2023-12-04T10:24:32;2.00;2.00;1.75
80289;PMS7003;69592;44.804;-0.550;2023-12-04T10:27:00;11.25;11.25;10.00
80289;PMS7003;69592;44.804;-0.550;2023-12-04T10:29:48;5.50;5.00;4.00
80289;PMS7003;69592;44.804;-0.550;2023-12-04T10:32:20;4.00;2.00;1.75
80289;PMS7003;69592;44.804;-0.550;2023-12-04T10:34:49;1.00;1.00;1.00
80289;PMS7003;69592;44.804;-0.550;2023-12-04T10:37:14;2.50;2.00;1.75
80289;PMS7003;69592;44.804;-0.550;2023-12-04T10:39:47;5.25;4.00;4.00
80289;PMS7003;69592;44.804;-0.550;2023-12-04T10:42:22;4.00;1.00;0.75
80289;PMS7003;69592;44.804;-0.550;2023-12-04T10:44:51;1.00;1.00;0.75
80289;PMS7003;69592;44.804;-0.550;2023-12-04T10:47:19;1.25;1.25;1.00
80289;PMS7003;69592;44.804;-0.550;2023-12-04T10:49:46;2.00;2.00;1.00
80289;PMS7003;69592;44.804;-0.550;2023-12-04T10:52:17;4.75;1.75;1.00
80289;PMS7003;69592;44.804;-0.550;2023-12-04T10:54:49;1.75;1.75;1.00
80289;PMS7003;69592;44.804;-0.550;2023-12-04T10:57:16;2.00;1.00;0.75
80289;PMS7003;69592;44.804;-0.550;2023-12-04T10:59:47;3.00;1.75;1.00
80289;PMS7003;69592;44.804;-0.550;2023-12-04T11:02:20;1.00;1.00;1.00
80289;PMS7003;69592;44.804;-0.550;2023-12-04T11:04:51;0.00;0.00;0.00
80289;PMS7003;69592;44.804;-0.550;2023-12-04T11:07:23;0.50;0.50;0.25
80289;PMS7003;69592;44.804;-0.550;2023-12-04T11:09:50;2.50;2.50;1.00
80289;PMS7003;69592;44.804;-0.550;2023-12-04T11:12:17;0.00;0.00;0.00
80289;PMS7003;69592;44.804;-0.550;2023-12-04T11:14:46;2.00;2.00;1.50
80289;PMS7003;69592;44.804;-0.550;2023-12-04T11:17:25;0.25;0.00;0.00
80289;PMS7003;69592;44.804;-0.550;2023-12-04T11:19:59;1.00;1.00;1.00
80289;PMS7003;69592;44.804;-0.550;2023-12-04T11:22:32;1.75;1.00;1.00
80289;PMS7003;69592;44.804;-0.550;2023-12-04T11:25:00;1.75;1.75;1.00
80289;PMS7003;69592;44.804;-0.550;2023-12-04T11:27:30;1.00;0.00;0.00
80289;PMS7003;69592;44.804;-0.550;2023-12-04T11:29:57;4.25;2.00;1.00
80289;PMS7003;69592;44.804;-0.550;2023-12-04T11:32:24;7.75;4.50;2.50
80289;PMS7003;69592;44.804;-0.550;2023-12-04T11:34:55;2.00;2.00;2.00
80289;PMS7003;69592;44.804;-0.550;2023-12-04T11:37:24;0.50;0.25;0.25
80289;PMS7003;69592;44.804;-0.550;2023-12-04T11:39:50;1.50;0.00;0.00
80289;PMS7003;69592;44.804;-0.550;2023-12-04T11:42:22;1.00;1.00;1.00
80289;PMS7003;69592;44.804;-0.550;2023-12-04T11:44:51;1.00;1.00;0.50
80289;PMS7003;69592;44.804;-0.550;2023-12-04T11:47:22;1.25;0.00;0.00
80289;PMS7003;69592;44.804;-0.550;2023-12-04T11:49:47;2.00;1.00;0.25
80289;PMS7003;69592;44.804;-0.550;2023-12-04T11:52:13;1.00;1.00;1.00
80289;PMS7003;69592;44.804;-0.550;2023-12-04T11:54:57;3.00;1.75;1.00
80289;PMS7003;69592;44.804;-0.550;2023-12-04T11:57:24;1.00;1.00;1.00
80289;PMS7003;69592;44.804;-0.550;2023-12-04T11:59:51;3.00;2.00;1.00
80289;PMS7003;69592;44.804;-0.550;2023-12-04T12:02:17;5.75;5.25;4.00
80289;PMS7003;69592;44.804;-0.550;2023-12-04T12:04:42;5.75;5.00;3.25
80289;PMS7003;69592;44.804;-0.550;2023-12-04T12:07:08;9.25;6.75;6.00
80289;PMS7003;69592;44.804;-0.550;2023-12-04T12:09:34;9.25;7.25;4.25
80289;PMS7003;69592;44.804;-0.550;2023-12-04T12:12:00;5.50;5.50;2.75
80289;PMS7003;69592;44.804;-0.550;2023-12-04T12:14:27;6.50;6.50;4.00
80289;PMS7003;69592;44.804;-0.550;2023-12-04T12:16:57;5.50;1.75;1.00
80289;PMS7003;69592;44.804;-0.550;2023-12-04T12:19:25;3.50;3.00;1.00
80289;PMS7003;69592;44.804;-0.550;2023-12-04T12:21:50;4.00;3.00;2.00
80289;PMS7003;69592;44.804;-0.550;2023-12-04T12:24:17;5.00;2.00;1.75
80289;PMS7003;69592;44.804;-0.550;2023-12-04T12:26:43;1.25;1.00;1.00
80289;PMS7003;69592;44.804;-0.550;2023-12-04T12:29:10;6.50;5.25;3.00
80289;PMS7003;69592;44.804;-0.550;2023-12-04T12:31:36;3.75;3.00;2.00
80289;PMS7003;69592;44.804;-0.550;2023-12-04T12:34:02;2.75;1.00;0.50
80289;PMS7003;69592;44.804;-0.550;2023-12-04T12:36:28;1.00;1.00;1.00
80289;PMS7003;69592;44.804;-0.550;2023-12-04T12:38:53;3.00;1.00;0.25
80289;PMS7003;69592;44.804;-0.550;2023-12-04T12:41:19;1.75;1.00;1.00
80289;PMS7003;69592;44.804;-0.550;2023-12-04T12:43:45;1.00;1.00;1.00
80289;PMS7003;69592;44.804;-0.550;2023-12-04T12:46:12;1.00;1.00;0.50
80289;PMS7003;69592;44.804;-0.550;2023-12-04T12:48:37;1.00;1.00;0.25
80289;PMS7003;69592;44.804;-0.550;2023-12-04T12:51:03;2.25;2.00;2.00
80289;PMS7003;69592;44.804;-0.550;2023-12-04T12:53:31;0.00;0.00;0.00
80289;PMS7003;69592;44.804;-0.550;2023-12-04T12:55:59;1.00;1.00;1.00
80289;PMS7003;69592;44.804;-0.550;2023-12-04T12:58:26;1.75;1.75;1.00
80289;PMS7003;69592;44.804;-0.550;2023-12-04T13:00:51;5.25;2.00;1.00
80289;PMS7003;69592;44.804;-0.550;2023-12-04T13:03:17;0.75;0.75;0.00
80289;PMS7003;69592;44.804;-0.550;2023-12-04T13:05:43;2.75;1.00;0.25
80289;PMS7003;69592;44.804;-0.550;2023-12-04T13:08:09;2.50;1.25;0.00
80289;PMS7003;69592;44.804;-0.550;2023-12-04T13:10:36;8.75;8.75;6.25
80289;PMS7003;69592;44.804;-0.550;2023-12-04T13:13:02;1.00;0.50;0.00
80289;PMS7003;69592;44.804;-0.550;2023-12-04T13:15:27;2.00;1.00;1.00
80289;PMS7003;69592;44.804;-0.550;2023-12-04T13:17:53;1.50;0.75;0.75
80289;PMS7003;69592;44.804;-0.550;2023-12-04T13:20:18;1.00;1.00;1.00
80289;PMS7003;69592;44.804;-0.550;2023-12-04T13:22:43;3.75;1.00;0.75
80289;PMS7003;69592;44.804;-0.550;2023-12-04T13:25:10;5.75;2.75;1.00
80289;PMS7003;69592;44.804;-0.550;2023-12-04T13:27:38;1.75;1.00;0.00
80289;PMS7003;69592;44.804;-0.550;2023-12-04T13:30:07;1.00;1.00;0.00
80289;PMS7003;69592;44.804;-0.550;2023-12-04T13:32:36;2.25;0.75;0.00
80289;PMS7003;69592;44.804;-0.550;2023-12-04T13:35:03;3.00;1.00;1.00
80289;PMS7003;69592;44.804;-0.550;2023-12-04T13:37:33;3.50;0.25;0.25
80289;PMS7003;69592;44.804;-0.550;2023-12-04T13:40:01;2.00;2.00;1.00
80289;PMS7003;69592;44.804;-0.550;2023-12-04T13:42:33;13.00;7.75;6.50
80289;PMS7003;69592;44.804;-0.550;2023-12-04T13:45:17;6.75;3.00;2.00
80289;PMS7003;69592;44.804;-0.550;2023-12-04T13:47:45;14.00;6.50;5.00
80289;PMS7003;69592;44.804;-0.550;2023-12-04T13:50:11;6.00;2.00;1.50
80289;PMS7003;69592;44.804;-0.550;2023-12-04T13:52:36;3.50;1.00;1.00
80289;PMS7003;69592;44.804;-0.550;2023-12-04T13:55:04;20.00;14.75;9.75
80289;PMS7003;69592;44.804;-0.550;2023-12-04T13:57:39;22.75;19.25;14.25
80289;PMS7003;69592;44.804;-0.550;2023-12-04T14:00:23;21.50;16.75;12.50
80289;PMS7003;69592;44.804;-0.550;2023-12-04T14:02:48;16.75;13.75;9.75
80289;PMS7003;69592;44.804;-0.550;2023-12-04T14:05:18;14.00;10.25;7.00
80289;PMS7003;69592;44.804;-0.550;2023-12-04T14:07:45;3.00;3.00;2.25